createdAt,value
2018-12-21T00:02:26.535Z,9.50
2018-12-21T00:04:55.316Z,9.60
2018-12-21T00:07:24.128Z,9.60
2018-12-21T00:09:52.928Z,9.60
2018-12-21T00:12:22.132Z,9.60
2018-12-21T00:14:51.108Z,9.50
2018-12-21T00:17:19.928Z,9.50
2018-12-21T00:19:48.728Z,9.50
2018-12-21T00:22:17.590Z,9.50
2018-12-21T00:24:46.395Z,9.40
2018-12-21T00:27:15.216Z,9.40
2018-12-21T00:29:44.065Z,9.40
2018-12-21T00:32:18.276Z,9.30
2018-12-21T00:34:52.544Z,9.30
2018-12-21T00:37:26.881Z,9.30
2018-12-21T00:40:01.076Z,9.30
2018-12-21T00:42:38.255Z,9.30
2018-12-21T00:45:11.658Z,9.30
2018-12-21T00:47:40.606Z,9.20
2018-12-21T00:50:09.708Z,9.20
2018-12-21T00:52:38.612Z,9.20
2018-12-21T00:55:07.581Z,9.10
2018-12-21T00:57:36.404Z,9.20
2018-12-21T01:00:06.501Z,9.10
2018-12-21T01:02:36.420Z,9.10
2018-12-21T01:05:05.403Z,9.10
2018-12-21T01:07:35.801Z,9.00
2018-12-21T01:10:05.249Z,9.00
2018-12-21T01:12:34.961Z,9.00
2018-12-21T01:15:03.904Z,9.00
2018-12-21T01:17:33.722Z,8.90
2018-12-21T01:20:02.576Z,8.90
2018-12-21T01:22:31.375Z,8.80
2018-12-21T01:25:00.227Z,8.80
2018-12-21T01:27:30.099Z,8.80
2018-12-21T01:29:59.139Z,8.80
2018-12-21T01:32:28.028Z,8.80
2018-12-21T01:34:56.808Z,8.80
2018-12-21T01:37:25.584Z,8.90
2018-12-21T01:39:54.695Z,8.90
2018-12-21T01:42:23.576Z,8.80
2018-12-21T01:44:52.413Z,8.80
2018-12-21T01:47:21.204Z,8.80
2018-12-21T01:49:50.014Z,8.70
2018-12-21T01:52:18.800Z,8.70
2018-12-21T01:54:47.657Z,8.70
2018-12-21T01:57:16.501Z,8.70
2018-12-21T01:59:45.320Z,8.70
2018-12-21T02:02:14.183Z,8.70
2018-12-21T02:04:43.152Z,8.60
2018-12-21T02:07:12.011Z,8.60
2018-12-21T02:09:40.840Z,8.60
2018-12-21T02:12:09.676Z,8.60
2018-12-21T02:14:38.476Z,8.60
2018-12-21T02:17:07.320Z,8.60
2018-12-21T02:19:36.172Z,8.60
2018-12-21T02:22:04.947Z,8.60
2018-12-21T02:24:33.764Z,8.60
2018-12-21T02:27:02.728Z,8.60
2018-12-21T02:30:02.252Z,8.60
2018-12-21T02:32:31.273Z,8.70
2018-12-21T02:35:00.071Z,8.70
2018-12-21T02:37:28.928Z,8.70
2018-12-21T02:39:57.758Z,8.80
2018-12-21T02:42:26.650Z,8.80
2018-12-21T02:44:55.472Z,8.80
2018-12-21T02:47:24.276Z,8.80
2018-12-21T02:49:53.067Z,8.90
2018-12-21T02:52:21.924Z,8.90
2018-12-21T02:54:51.164Z,8.90
2018-12-21T02:57:19.982Z,9.00
2018-12-21T02:59:48.817Z,9.00
2018-12-21T03:02:17.688Z,9.10
2018-12-21T03:04:46.521Z,9.10
2018-12-21T03:07:15.330Z,9.10
2018-12-21T03:09:44.159Z,9.10
2018-12-21T03:12:13.019Z,9.10
2018-12-21T03:14:42.564Z,9.10
2018-12-21T03:17:11.345Z,9.10
2018-12-21T03:19:40.136Z,9.10
2018-12-21T03:22:14.541Z,9.10
2018-12-21T03:24:39.753Z,9.00
2018-12-21T03:27:08.584Z,9.00
2018-12-21T03:29:37.500Z,9.10
2018-12-21T03:32:06.370Z,9.10
2018-12-21T03:34:35.185Z,9.10
2018-12-21T03:37:04.080Z,9.20
2018-12-21T03:39:32.917Z,9.10
2018-12-21T03:42:01.723Z,9.10
2018-12-21T03:44:30.540Z,9.10
2018-12-21T03:46:59.338Z,9.10
2018-12-21T03:49:28.173Z,9.20
2018-12-21T03:51:58.487Z,9.30
2018-12-21T03:54:27.281Z,9.30
2018-12-21T03:56:56.320Z,9.40
2018-12-21T03:59:25.166Z,9.40
2018-12-21T04:01:53.988Z,9.40
2018-12-21T04:04:23.521Z,9.40
2018-12-21T04:06:52.296Z,9.40
2018-12-21T04:09:21.082Z,9.40
2018-12-21T04:11:49.900Z,9.30
2018-12-21T04:14:18.717Z,9.20
2018-12-21T04:16:47.564Z,9.20
2018-12-21T04:19:16.395Z,9.10
2018-12-21T04:21:45.185Z,9.00
2018-12-21T04:24:13.960Z,8.90
2018-12-21T04:26:42.719Z,8.90
2018-12-21T04:29:12.584Z,8.80
2018-12-21T04:31:41.441Z,8.80
2018-12-21T04:34:10.245Z,8.70
2018-12-21T04:36:39.027Z,8.70
2018-12-21T04:39:07.904Z,8.70
2018-12-21T04:41:36.687Z,8.70
2018-12-21T04:44:05.461Z,8.60
2018-12-21T04:46:34.272Z,8.70
2018-12-21T04:49:03.080Z,8.60
2018-12-21T04:51:31.985Z,8.60
2018-12-21T04:54:01.163Z,8.60
2018-12-21T04:56:29.983Z,8.60
2018-12-21T04:58:58.784Z,8.70
2018-12-21T05:01:27.628Z,8.70
2018-12-21T05:03:56.438Z,8.70
2018-12-21T05:06:25.224Z,8.70
2018-12-21T05:08:54.017Z,8.70
2018-12-21T05:11:22.916Z,8.70
2018-12-21T05:13:51.786Z,8.70
2018-12-21T05:16:20.617Z,8.70
2018-12-21T05:18:49.408Z,8.60
2018-12-21T05:21:18.223Z,8.70
2018-12-21T05:23:47.086Z,8.70
2018-12-21T05:26:15.932Z,8.60
2018-12-21T05:28:44.854Z,8.60
2018-12-21T05:31:13.646Z,8.60
2018-12-21T05:33:43.717Z,8.70
2018-12-21T05:36:12.572Z,8.70
2018-12-21T05:38:41.412Z,8.80
2018-12-21T05:41:10.192Z,8.80
2018-12-21T05:43:39.122Z,8.80
2018-12-21T05:46:07.999Z,8.90
2018-12-21T05:48:36.916Z,8.90
2018-12-21T05:51:05.704Z,8.90
2018-12-21T05:53:34.527Z,9.00
2018-12-21T05:56:03.320Z,8.90
2018-12-21T05:58:32.100Z,9.00
2018-12-21T06:01:00.885Z,9.00
2018-12-21T06:03:30.948Z,9.00
2018-12-21T06:05:59.749Z,9.00
2018-12-21T06:08:28.580Z,9.00
2018-12-21T06:10:57.458Z,9.00
2018-12-21T06:13:26.433Z,8.90
2018-12-21T06:15:55.252Z,8.90
2018-12-21T06:18:24.045Z,9.00
2018-12-21T06:20:52.881Z,8.90
2018-12-21T06:23:21.675Z,8.90
2018-12-21T06:25:50.512Z,8.90
2018-12-21T06:28:19.303Z,8.90
2018-12-21T06:30:48.149Z,8.90
2018-12-21T06:33:16.952Z,9.00
2018-12-21T06:35:45.876Z,9.00
2018-12-21T06:38:14.925Z,9.00
2018-12-21T06:40:43.761Z,9.10
2018-12-21T06:43:13.057Z,9.10
2018-12-21T06:45:41.968Z,9.10
2018-12-21T06:48:10.784Z,9.10
2018-12-21T06:50:39.655Z,9.10
2018-12-21T06:53:08.563Z,9.20
2018-12-21T06:55:37.393Z,9.20
2018-12-21T06:58:06.211Z,9.20
2018-12-21T07:00:35.508Z,9.30
2018-12-21T07:03:04.356Z,9.40
2018-12-21T07:05:33.982Z,9.50
2018-12-21T07:08:02.863Z,9.60
2018-12-21T07:10:31.692Z,9.70
2018-12-21T07:13:00.583Z,9.80
2018-12-21T07:15:30.026Z,9.90
2018-12-21T07:17:58.980Z,10.00
2018-12-21T07:20:27.819Z,10.10
2018-12-21T07:22:56.664Z,10.20
2018-12-21T07:25:25.564Z,10.20
2018-12-21T07:27:54.459Z,10.30
2018-12-21T07:30:23.340Z,10.40
2018-12-21T07:32:52.117Z,10.50
2018-12-21T07:35:20.956Z,10.60
2018-12-21T07:37:49.811Z,10.70
2018-12-21T07:40:18.626Z,10.90
2018-12-21T07:42:47.463Z,11.00
2018-12-21T07:45:16.343Z,11.10
2018-12-21T07:47:45.224Z,11.20
2018-12-21T07:50:14.036Z,11.40
2018-12-21T07:52:42.888Z,11.50
2018-12-21T07:55:11.763Z,11.60
2018-12-21T07:57:40.601Z,11.80
2018-12-21T08:00:11.476Z,11.90
2018-12-21T08:02:40.329Z,12.10
2018-12-21T08:05:09.148Z,12.20
2018-12-21T08:07:38.006Z,12.30
2018-12-21T08:12:39.423Z,12.70
2018-12-21T08:15:08.351Z,12.90
2018-12-21T08:17:37.243Z,13.10
2018-12-21T08:20:07.159Z,13.20
2018-12-21T08:22:36.049Z,13.30
2018-12-21T08:25:05.573Z,13.40
2018-12-21T08:27:34.413Z,13.50
2018-12-21T08:30:03.535Z,13.50
2018-12-21T08:32:32.385Z,13.40
2018-12-21T08:35:01.212Z,13.40
2018-12-21T08:37:30.040Z,13.50
2018-12-21T08:39:58.882Z,13.60
2018-12-21T08:42:28.351Z,13.60
2018-12-21T08:44:57.185Z,13.70
2018-12-21T08:47:26.018Z,13.80
2018-12-21T08:49:54.883Z,13.90
2018-12-21T08:52:26.836Z,14.00
2018-12-21T08:54:56.259Z,14.10
2018-12-21T08:57:25.172Z,14.20
2018-12-21T08:59:54.002Z,14.20
2018-12-21T09:02:22.801Z,14.20
2018-12-21T09:07:20.152Z,14.40
2018-12-21T09:09:49.344Z,14.40
2018-12-21T09:12:18.153Z,14.50
2018-12-21T09:14:47.000Z,14.60
2018-12-21T09:17:15.903Z,14.60
2018-12-21T09:19:45.441Z,14.60
2018-12-21T09:22:14.628Z,14.70
2018-12-21T09:24:44.035Z,14.80
2018-12-21T09:27:12.887Z,14.80
2018-12-21T09:29:41.720Z,14.80
2018-12-21T09:32:10.509Z,14.90
2018-12-21T09:34:39.516Z,14.90
2018-12-21T09:37:08.544Z,15.00
2018-12-21T09:39:37.351Z,15.10
2018-12-21T09:42:06.156Z,15.10
2018-12-21T09:44:36.027Z,15.20
2018-12-21T09:47:05.098Z,15.20
2018-12-21T09:49:35.158Z,15.20
2018-12-21T09:52:04.063Z,15.20
2018-12-21T09:54:32.928Z,15.30
2018-12-21T09:57:02.084Z,15.30
2018-12-21T09:59:31.068Z,15.20
2018-12-21T10:01:59.911Z,15.20
2018-12-21T10:04:28.776Z,15.10
2018-12-21T10:06:57.560Z,15.10
2018-12-21T10:09:26.388Z,15.00
2018-12-21T10:11:55.243Z,14.90
2018-12-21T10:14:24.049Z,14.80
2018-12-21T10:16:53.415Z,14.80
2018-12-21T10:19:23.907Z,14.70
2018-12-21T10:21:52.715Z,14.70
2018-12-21T10:24:21.596Z,14.70
2018-12-21T10:26:50.459Z,14.70
2018-12-21T10:29:19.284Z,14.70
2018-12-21T10:31:48.111Z,14.70
2018-12-21T10:34:16.932Z,14.70
2018-12-21T10:36:45.811Z,14.70
2018-12-21T10:39:14.633Z,14.70
2018-12-21T10:41:43.436Z,14.60
2018-12-21T10:44:12.239Z,14.60
2018-12-21T10:46:41.180Z,14.60
2018-12-21T10:49:10.037Z,14.60
2018-12-21T10:51:39.287Z,14.50
2018-12-21T10:54:08.197Z,14.40
2018-12-21T10:56:37.015Z,14.40
2018-12-21T10:59:05.916Z,14.40
2018-12-21T11:01:34.732Z,14.40
2018-12-21T11:04:05.064Z,14.40
2018-12-21T11:06:34.270Z,14.30
2018-12-21T11:09:04.125Z,14.40
2018-12-21T11:11:32.923Z,14.40
2018-12-21T11:14:01.801Z,14.40
2018-12-21T11:16:30.672Z,14.40
2018-12-21T11:18:59.501Z,14.40
2018-12-21T11:21:28.335Z,14.50
2018-12-21T11:23:57.210Z,14.50
2018-12-21T11:26:26.327Z,14.50
2018-12-21T11:28:55.142Z,14.50
2018-12-21T11:31:24.081Z,14.50
2018-12-21T11:33:52.899Z,14.50
2018-12-21T11:36:21.792Z,14.40
2018-12-21T11:38:51.734Z,14.40
2018-12-21T11:41:20.584Z,14.40
2018-12-21T11:43:49.500Z,14.40
2018-12-21T11:46:18.371Z,14.40
2018-12-21T11:48:47.233Z,14.40
2018-12-21T11:51:17.111Z,14.30
2018-12-21T11:53:46.000Z,14.20
2018-12-21T11:56:14.810Z,14.20
2018-12-21T11:58:43.716Z,14.10
2018-12-21T12:01:12.564Z,14.10
2018-12-21T12:03:41.399Z,14.10
2018-12-21T12:06:10.899Z,14.10
2018-12-21T12:08:39.856Z,14.10
2018-12-21T12:11:08.668Z,14.10
2018-12-21T12:13:37.571Z,14.10
2018-12-21T12:16:06.434Z,14.10
2018-12-21T12:18:35.226Z,14.20
2018-12-21T12:21:04.191Z,14.10
2018-12-21T12:23:33.024Z,14.10
2018-12-21T12:26:04.323Z,14.10
2018-12-21T12:28:33.580Z,14.10
2018-12-21T12:31:02.499Z,14.00
2018-12-21T12:33:31.312Z,14.00
2018-12-21T12:36:00.127Z,14.00
2018-12-21T12:38:28.969Z,14.00
2018-12-21T12:41:06.390Z,13.90
2018-12-21T12:43:28.661Z,13.90
2018-12-21T12:45:57.453Z,13.90
2018-12-21T12:48:26.721Z,13.90
2018-12-21T12:50:55.511Z,13.90
2018-12-21T12:53:24.362Z,13.90
2018-12-21T12:55:53.275Z,13.80
2018-12-21T12:58:22.099Z,13.80
2018-12-21T13:00:50.948Z,13.70
2018-12-21T13:03:19.899Z,13.70
2018-12-21T13:05:48.730Z,13.70
2018-12-21T13:08:17.524Z,13.60
2018-12-21T13:10:46.447Z,13.60
2018-12-21T13:13:15.291Z,13.60
2018-12-21T13:15:44.136Z,13.50
2018-12-21T13:18:12.992Z,13.50
2018-12-21T13:20:41.955Z,13.50
2018-12-21T13:23:11.143Z,13.40
2018-12-21T13:25:40.431Z,13.40
2018-12-21T13:28:10.281Z,13.40
2018-12-21T13:30:39.091Z,13.30
2018-12-21T13:33:08.006Z,13.30
2018-12-21T13:35:36.812Z,13.30
2018-12-21T13:38:05.676Z,13.30
2018-12-21T13:40:34.492Z,13.30
2018-12-21T13:43:03.311Z,13.20
2018-12-21T13:45:32.153Z,13.20
2018-12-21T13:48:03.980Z,13.20
2018-12-21T13:50:32.816Z,13.20
2018-12-21T13:53:01.648Z,13.20
2018-12-21T13:55:30.539Z,13.10
2018-12-21T13:57:59.414Z,13.10
2018-12-21T14:00:28.272Z,13.00
2018-12-21T14:02:57.110Z,13.00
2018-12-21T14:05:25.968Z,13.00
2018-12-21T14:07:54.820Z,13.00
2018-12-21T14:10:23.667Z,12.90
2018-12-21T14:12:53.401Z,12.90
2018-12-21T14:15:22.802Z,12.90
2018-12-21T14:17:51.815Z,12.90
2018-12-21T14:20:23.269Z,12.90
2018-12-21T14:22:52.112Z,12.80
2018-12-21T14:25:28.819Z,12.80
2018-12-21T14:27:53.699Z,12.80
2018-12-21T14:30:22.511Z,12.80
2018-12-21T14:32:52.822Z,12.70
2018-12-21T14:35:26.159Z,12.80
2018-12-21T14:37:56.500Z,12.70
2018-12-21T14:40:25.844Z,12.70
2018-12-21T14:42:54.644Z,12.70
2018-12-21T14:45:23.492Z,12.70
2018-12-21T14:47:52.435Z,12.70
2018-12-21T14:50:21.265Z,12.60
2018-12-21T14:52:50.124Z,12.60
2018-12-21T14:55:18.983Z,12.60
2018-12-21T14:57:47.869Z,12.60
2018-12-21T15:00:16.717Z,12.60
2018-12-21T15:02:50.044Z,12.50
2018-12-21T15:05:19.420Z,12.50
2018-12-21T15:07:48.492Z,12.40
2018-12-21T15:10:17.807Z,12.40
2018-12-21T15:12:46.710Z,12.40
2018-12-21T15:15:15.576Z,12.30
2018-12-21T15:17:44.415Z,12.30
2018-12-21T15:20:13.236Z,12.20
2018-12-21T15:22:42.800Z,12.20
2018-12-21T15:25:11.630Z,12.10
2018-12-21T15:27:40.485Z,12.10
2018-12-21T15:30:21.025Z,12.10
2018-12-21T15:32:51.048Z,12.00
2018-12-21T15:35:19.935Z,12.00
2018-12-21T15:37:48.920Z,11.90
2018-12-21T15:40:18.319Z,11.80
2018-12-21T15:42:47.124Z,11.70
2018-12-21T15:45:15.915Z,11.60
2018-12-21T15:47:44.738Z,11.60
2018-12-21T15:50:13.559Z,11.50
2018-12-21T15:52:43.356Z,11.50
2018-12-21T15:55:12.942Z,11.40
2018-12-21T15:57:41.904Z,11.40
2018-12-21T16:00:13.559Z,11.40
2018-12-21T16:02:46.116Z,11.40
2018-12-21T16:05:16.135Z,11.30
2018-12-21T16:07:44.940Z,11.40
2018-12-21T16:10:13.744Z,11.40
2018-12-21T16:12:42.655Z,11.40
2018-12-21T16:15:11.498Z,11.40
2018-12-21T16:17:40.983Z,11.40
2018-12-21T16:20:12.900Z,11.30
2018-12-21T16:22:42.525Z,11.30
2018-12-21T16:25:11.852Z,11.30
2018-12-21T16:27:41.332Z,11.30
2018-12-21T16:30:12.033Z,11.30
2018-12-21T16:32:40.890Z,11.40
2018-12-21T16:35:09.777Z,11.40
2018-12-21T16:37:38.717Z,11.30
2018-12-21T16:40:10.126Z,11.20
2018-12-21T16:42:38.948Z,11.20
2018-12-21T16:45:09.908Z,11.20
2018-12-21T16:47:38.715Z,11.10
2018-12-21T16:50:13.239Z,11.10
2018-12-21T16:52:42.101Z,11.00
2018-12-21T16:55:12.252Z,11.00
2018-12-21T16:57:41.087Z,10.90
2018-12-21T17:00:13.859Z,10.90
2018-12-21T17:02:42.772Z,10.90
2018-12-21T17:05:11.619Z,10.90
2018-12-21T17:07:40.452Z,10.90
2018-12-21T17:10:18.838Z,10.90
2018-12-21T17:12:48.113Z,10.90
2018-12-21T17:15:16.989Z,10.80
2018-12-21T17:17:45.874Z,10.80
2018-12-21T17:20:14.716Z,10.80
2018-12-21T17:22:44.913Z,10.80
2018-12-21T17:25:15.114Z,10.80
2018-12-21T17:27:44.288Z,10.80
2018-12-21T17:30:13.712Z,10.80
2018-12-21T17:32:42.553Z,10.70
2018-12-21T17:35:11.844Z,10.70
2018-12-21T17:37:40.806Z,10.80
2018-12-21T17:40:10.877Z,10.70
2018-12-21T17:42:39.914Z,10.70
2018-12-21T17:45:10.889Z,10.70
2018-12-21T17:47:39.844Z,10.60
2018-12-21T17:50:09.907Z,10.60
2018-12-21T17:52:38.752Z,10.50
2018-12-21T17:55:09.787Z,10.50
2018-12-21T17:57:38.664Z,10.40
2018-12-21T18:00:15.291Z,10.40
2018-12-21T18:02:46.488Z,10.40
2018-12-21T18:05:16.241Z,10.40
2018-12-21T18:07:45.073Z,10.50
2018-12-21T18:10:14.438Z,10.50
2018-12-21T18:12:43.284Z,10.60
2018-12-21T18:15:12.120Z,10.70
2018-12-21T18:17:44.289Z,10.70
2018-12-21T18:20:13.866Z,10.80
2018-12-21T18:22:43.049Z,10.90
2018-12-21T18:25:14.373Z,10.90
2018-12-21T18:27:45.400Z,10.90
2018-12-21T18:30:19.592Z,11.00
2018-12-21T18:32:48.563Z,11.00
2018-12-21T18:35:19.687Z,11.00
2018-12-21T18:37:52.276Z,10.90
2018-12-21T18:40:21.124Z,10.90
2018-12-21T18:42:50.028Z,10.90
2018-12-21T18:45:20.735Z,10.90
2018-12-21T18:47:49.679Z,10.90
2018-12-21T18:50:18.873Z,10.90
2018-12-21T18:52:48.239Z,10.80
2018-12-21T18:55:17.785Z,10.70
2018-12-21T18:57:46.676Z,10.70
2018-12-21T19:00:16.842Z,10.60
2018-12-21T19:02:45.724Z,10.60
2018-12-21T19:05:15.330Z,10.60
2018-12-21T19:07:44.765Z,10.50
2018-12-21T19:10:13.745Z,10.60
2018-12-21T19:12:42.712Z,10.60
2018-12-21T19:15:12.012Z,10.70
2018-12-21T19:17:41.672Z,10.80
2018-12-21T19:20:12.132Z,10.90
2018-12-21T19:22:41.233Z,10.90
2018-12-21T19:25:11.383Z,11.00
2018-12-21T19:27:40.362Z,11.00
2018-12-21T19:30:11.679Z,11.00
2018-12-21T19:32:43.691Z,11.10
2018-12-21T19:35:13.992Z,11.10
2018-12-21T19:37:43.012Z,11.10
2018-12-21T19:40:12.468Z,11.00
2018-12-21T19:42:41.707Z,10.90
2018-12-21T19:45:13.769Z,10.90
2018-12-21T19:47:42.716Z,10.80
2018-12-21T19:50:12.782Z,10.70
2018-12-21T19:52:41.765Z,10.60
2018-12-21T19:55:51.304Z,10.50
2018-12-21T19:58:22.015Z,10.50
2018-12-21T20:00:51.819Z,10.40
2018-12-21T20:03:20.706Z,10.30
2018-12-21T20:05:49.598Z,10.30
2018-12-21T20:08:18.540Z,10.30
2018-12-21T20:10:48.061Z,10.30
2018-12-21T20:13:16.916Z,10.20
2018-12-21T20:15:45.840Z,10.20
2018-12-21T20:18:14.783Z,10.20
2018-12-21T20:20:43.621Z,10.10
2018-12-21T20:23:12.621Z,10.10
2018-12-21T20:25:41.988Z,10.10
2018-12-21T20:28:10.965Z,10.10
2018-12-21T20:30:39.987Z,10.10
2018-12-21T20:33:09.859Z,10.10
2018-12-21T20:35:38.795Z,10.00
2018-12-21T20:38:07.744Z,10.00
2018-12-21T20:40:36.732Z,10.00
2018-12-21T20:43:08.123Z,10.10
2018-12-21T20:45:37.008Z,10.10
2018-12-21T20:48:07.297Z,10.10
2018-12-21T20:50:36.318Z,10.20
2018-12-21T20:53:09.425Z,10.20
2018-12-21T20:55:41.442Z,10.10
2018-12-21T20:58:46.598Z,10.10
2018-12-21T21:01:17.379Z,10.20
2018-12-21T21:03:48.326Z,10.10
2018-12-21T21:06:19.940Z,10.00
2018-12-21T21:08:50.534Z,10.00
2018-12-21T21:11:24.970Z,9.90
2018-12-21T21:13:52.312Z,9.90
2018-12-21T21:16:22.032Z,9.90
2018-12-21T21:18:51.388Z,9.90
2018-12-21T21:21:20.800Z,9.90
2018-12-21T21:23:51.323Z,9.90
2018-12-21T21:26:21.551Z,9.90
2018-12-21T21:28:52.469Z,9.90
2018-12-21T21:31:22.249Z,10.00
2018-12-21T21:33:51.175Z,10.00
2018-12-21T21:36:20.104Z,10.00
2018-12-21T21:38:49.295Z,10.10
2018-12-21T21:41:18.173Z,10.20
2018-12-21T21:43:46.983Z,10.20
2018-12-21T21:46:15.865Z,10.20
2018-12-21T21:48:44.908Z,10.30
2018-12-21T21:51:13.748Z,10.30
2018-12-21T21:53:42.587Z,10.40
2018-12-21T21:56:11.415Z,10.40
2018-12-21T21:58:40.308Z,10.40
2018-12-21T22:01:09.167Z,10.40
2018-12-21T22:03:38.240Z,10.40
2018-12-21T22:06:07.205Z,10.50
2018-12-21T22:08:36.164Z,10.60
2018-12-21T22:11:05.132Z,10.70
2018-12-21T22:13:34.017Z,10.70
2018-12-21T22:16:03.285Z,10.80
2018-12-21T22:18:32.202Z,10.80
2018-12-21T22:21:01.144Z,10.70
2018-12-21T22:23:29.940Z,10.70
2018-12-21T22:25:58.760Z,10.70
2018-12-21T22:28:27.652Z,10.70
2018-12-21T22:30:56.468Z,10.80
2018-12-21T22:33:25.352Z,10.90
2018-12-21T22:35:54.191Z,11.00
2018-12-21T22:38:23.024Z,11.00
2018-12-21T22:40:51.867Z,11.00
2018-12-21T22:43:20.696Z,11.10
2018-12-21T22:45:49.628Z,11.10
2018-12-21T22:48:18.459Z,11.20
2018-12-21T22:50:47.265Z,11.20
2018-12-21T22:53:16.084Z,11.20
2018-12-21T22:55:44.880Z,11.30
2018-12-21T22:58:13.695Z,11.30
2018-12-21T23:00:43.265Z,11.30
2018-12-21T23:03:12.099Z,11.40
2018-12-21T23:05:40.941Z,11.30
2018-12-21T23:08:09.744Z,11.40
2018-12-21T23:10:38.891Z,11.40
2018-12-21T23:13:07.707Z,11.40
2018-12-21T23:15:36.548Z,11.50
2018-12-21T23:18:05.331Z,11.50
2018-12-21T23:20:34.132Z,11.50
2018-12-21T23:23:02.950Z,11.50
2018-12-21T23:25:31.781Z,11.50
2018-12-21T23:28:04.972Z,11.50
2018-12-21T23:30:31.704Z,11.50
2018-12-21T23:33:00.528Z,11.50
2018-12-21T23:35:29.640Z,11.50
2018-12-21T23:37:58.468Z,11.40
2018-12-21T23:40:27.294Z,11.40
2018-12-21T23:42:56.170Z,11.40
2018-12-21T23:45:25.092Z,11.40
2018-12-21T23:47:53.923Z,11.40
2018-12-21T23:50:22.716Z,11.30
2018-12-21T23:52:51.541Z,11.30
2018-12-21T23:55:20.625Z,11.30
2018-12-21T23:57:49.523Z,11.30
